Time;durP1;ratioP1;P1;durP2;ratioP2;P2;SDS_P1;SDS_P2;PMS_P1;PMS_P2;Temp;Humidity;BMP_temperature;BMP_pressure;BME280_temperature;BME280_humidity;BME280_pressure;Samples;Min_cycle;Max_cycle;Signal;HPM_P1;HPM_P2
2024/01/29 00:03:38;;;;;;;11.60;5.65;;;;;;;1.60;68.83;101746.59;10344212;28;20089;-62
2024/01/29 00:08:40;;;;;;;10.93;5.78;;;;;;;1.55;68.83;101749.47;10338546;28;20053;-63
2024/01/29 00:13:46;;;;;;;15.48;6.75;;;;;;;1.56;68.42;101747.66;10339568;28;20046;-62
2024/01/29 00:18:47;;;;;;;12.40;6.30;;;;;;;1.54;68.88;101750.41;10346422;28;20042;-62
2024/01/29 00:23:50;;;;;;;12.80;6.18;;;;;;;1.51;68.75;101749.72;10338134;28;20053;-60
2024/01/29 00:28:51;;;;;;;13.27;5.63;;;;;;;1.50;68.74;101735.63;10346573;28;20043;-63
2024/01/29 00:33:53;;;;;;;9.77;5.03;;;;;;;1.38;69.17;101734.50;10343522;28;20038;-63
2024/01/29 00:38:56;;;;;;;16.08;5.80;;;;;;;1.33;68.79;101730.38;10342348;28;20054;-63
2024/01/29 00:43:57;;;;;;;16.15;5.55;;;;;;;1.37;68.23;101730.13;10342308;28;20431;-61
2024/01/29 00:48:59;;;;;;;11.57;4.88;;;;;;;1.36;68.85;101733.72;10339479;28;20050;-62
2024/01/29 00:54:04;;;;;;;9.63;3.83;;;;;;;1.35;68.53;101732.00;10340816;28;20039;-61
2024/01/29 00:59:06;;;;;;;9.55;4.13;;;;;;;1.38;68.54;101729.19;10336676;28;20516;-63
2024/01/29 01:04:08;;;;;;;10.02;4.60;;;;;;;1.34;68.58;101730.28;10338755;28;20077;-63
2024/01/29 01:09:10;;;;;;;11.77;4.50;;;;;;;1.36;69.41;101727.53;10340071;28;20130;-63
2024/01/29 01:14:11;;;;;;;10.60;4.45;;;;;;;1.36;68.82;101731.06;10337604;28;20050;-62
2024/01/29 01:19:12;;;;;;;9.70;3.22;;;;;;;1.36;68.80;101733.72;10338786;28;20179;-63
2024/01/29 01:24:14;;;;;;;10.07;5.03;;;;;;;1.38;68.48;101734.50;10339918;28;20046;-62
2024/01/29 01:29:15;;;;;;;8.52;3.80;;;;;;;1.36;68.57;101744.31;10335061;28;20094;-61
2024/01/29 01:34:17;;;;;;;8.85;3.03;;;;;;;1.37;68.22;101747.81;10339392;28;20680;-62
2024/01/29 01:39:19;;;;;;;6.88;3.45;;;;;;;1.34;69.00;101753.25;10346270;28;20459;-61
2024/01/29 01:44:21;;;;;;;4.88;2.42;;;;;;;1.36;69.17;101754.03;10339108;28;20045;-63
2024/01/29 01:49:23;;;;;;;6.60;3.00;;;;;;;1.35;68.61;101745.22;10344695;28;20050;-63
2024/01/29 01:54:25;;;;;;;11.77;5.05;;;;;;;1.32;69.47;101739.25;10342830;28;20046;-62
2024/01/29 01:59:29;;;;;;;13.73;6.78;;;;;;;1.25;68.61;101743.16;10350934;28;20046;-62
2024/01/29 02:04:31;;;;;;;13.45;6.05;;;;;;;1.26;68.68;101735.13;10348356;28;20053;-62
2024/01/29 02:09:33;;;;;;;15.75;5.55;;;;;;;1.19;69.09;101739.06;10344814;28;20046;-61
2024/01/29 02:14:35;;;;;;;6.25;2.95;;;;;;;1.23;68.95;101743.25;10345542;28;20045;-61
2024/01/29 02:19:37;;;;;;;5.47;2.80;;;;;;;1.26;69.01;101732.47;10349795;28;20120;-61
2024/01/29 02:24:39;;;;;;;5.55;2.42;;;;;;;1.31;69.46;101741.03;10346550;28;20106;-61
2024/01/29 02:29:41;;;;;;;10.30;2.00;;;;;;;1.28;68.95;101743.84;10342790;28;20081;-62
2024/01/29 02:34:43;;;;;;;4.28;2.03;;;;;;;1.32;69.42;101742.75;10341764;28;20142;-61
2024/01/29 02:39:45;;;;;;;5.47;1.92;;;;;;;1.30;68.91;101738.47;10345600;28;20045;-62
2024/01/29 02:44:47;;;;;;;5.78;2.53;;;;;;;1.30;69.46;101738.47;10347187;28;20065;-63
2024/01/29 02:49:48;;;;;;;3.88;1.80;;;;;;;1.26;69.72;101735.13;10342515;28;20046;-62
2024/01/29 02:54:50;;;;;;;3.20;1.55;;;;;;;1.26;69.80;101731.63;10344631;28;20053;-61
2024/01/29 02:59:52;;;;;;;4.68;2.13;;;;;;;1.23;69.19;101732.66;10345447;28;20053;-62
2024/01/29 03:04:53;;;;;;;7.20;2.00;;;;;;;1.27;69.24;101730.69;10339999;28;20176;-62
2024/01/29 03:09:56;;;;;;;3.72;1.38;;;;;;;1.28;69.10;101727.09;10346388;28;20646;-62
2024/01/29 03:14:58;;;;;;;3.70;1.80;;;;;;;1.25;70.04;101730.78;10332732;28;20649;-63
2024/01/29 03:20:08;;;;;;;4.82;1.63;;;;;;;1.31;69.55;101730.44;10340028;28;20453;-62
2024/01/29 03:25:11;;;;;;;4.40;1.70;;;;;;;1.34;69.35;101725.00;10341818;28;20054;-61
2024/01/29 03:30:13;;;;;;;3.60;1.85;;;;;;;1.33;69.30;101717.97;10343072;28;20073;-63
2024/01/29 03:35:23;;;;;;;7.93;2.22;;;;;;;1.28;69.09;101712.06;10344002;28;20124;-63
2024/01/29 03:40:25;;;;;;;3.72;1.88;;;;;;;1.28;69.56;101720.00;10347242;28;20164;-61
2024/01/29 03:45:26;;;;;;;4.65;1.73;;;;;;;1.23;69.82;101722.06;10345265;28;20053;-63
2024/01/29 03:50:28;;;;;;;5.30;2.13;;;;;;;1.26;68.91;101724.53;10341536;28;20496;-62
2024/01/29 03:55:30;;;;;;;5.55;2.28;;;;;;;1.21;68.93;101715.97;10345151;28;20042;-61
2024/01/29 04:00:32;;;;;;;3.45;1.30;;;;;;;1.26;69.49;101719.22;10340779;28;20100;-62
2024/01/29 04:05:34;;;;;;;4.68;1.52;;;;;;;1.28;69.30;101711.19;10341331;28;20061;-62
2024/01/29 04:10:36;;;;;;;7.93;1.58;;;;;;;1.25;69.48;101703.44;10339291;28;20052;-62
2024/01/29 04:15:37;;;;;;;3.72;1.77;;;;;;;1.27;69.34;101698.91;10343850;28;20104;-60
2024/01/29 04:20:39;;;;;;;4.68;1.65;;;;;;;1.24;68.94;101702.56;10347271;28;20489;-63
2024/01/29 04:25:40;;;;;;;6.10;1.95;;;;;;;1.17;69.27;101699.41;10336099;28;20404;-60
2024/01/29 04:30:42;;;;;;;5.57;1.48;;;;;;;1.19;69.10;101686.94;10343549;28;20066;-62
2024/01/29 04:35:44;;;;;;;5.65;1.92;;;;;;;1.18;69.03;101690.53;10345818;28;20493;-63
2024/01/29 04:40:45;;;;;;;6.00;1.77;;;;;;;1.14;69.70;101696.91;10338033;28;20117;-64
2024/01/29 04:45:47;;;;;;;4.40;1.50;;;;;;;1.10;69.94;101687.41;10332282;28;20125;-64
2024/01/29 04:50:48;;;;;;;3.42;1.40;;;;;;;1.12;69.55;101695.28;10338405;28;20464;-63
2024/01/29 04:55:50;;;;;;;2.47;1.70;;;;;;;1.12;69.36;101698.78;10337793;28;20042;-63
2024/01/29 05:00:51;;;;;;;3.20;1.50;;;;;;;1.12;69.75;101698.78;10359052;28;20519;-63
2024/01/29 05:05:56;;;;;;;4.10;2.00;;;;;;;1.11;69.81;101702.38;10333163;28;20061;-63
2024/01/29 05:10:58;;;;;;;6.57;3.10;;;;;;;1.07;69.98;101695.53;10340081;28;20050;-62
2024/01/29 05:16:01;;;;;;;3.90;1.88;;;;;;;1.03;69.87;101703.69;10339052;28;20051;-63
2024/01/29 05:21:07;;;;;;;5.57;2.22;;;;;;;1.00;70.03;101696.78;10343016;28;20042;-62
2024/01/29 05:26:09;;;;;;;6.38;1.75;;;;;;;0.97;69.73;101697.81;10341367;28;20056;-61
2024/01/29 05:31:11;;;;;;;4.28;2.15;;;;;;;1.01;69.69;101701.16;10338593;28;20482;-57
2024/01/29 05:36:13;;;;;;;4.13;1.80;;;;;;;1.06;69.78;101696.47;10339414;28;20120;-60
2024/01/29 05:41:15;;;;;;;4.07;1.60;;;;;;;1.05;69.91;101696.53;10341338;28;20140;-59
2024/01/29 05:46:16;;;;;;;6.03;1.67;;;;;;;0.98;69.76;101694.22;10336191;28;20046;-60
2024/01/29 05:51:20;;;;;;;3.55;1.92;;;;;;;1.03;69.71;101704.59;10356953;28;20411;-59
2024/01/29 05:56:21;;;;;;;5.18;2.03;;;;;;;1.10;70.52;101697.16;10342316;28;20158;-60
2024/01/29 06:01:23;;;;;;;6.45;2.47;;;;;;;1.16;69.93;101707.41;10341346;28;20038;-60
2024/01/29 06:06:24;;;;;;;7.88;2.03;;;;;;;1.16;69.46;101704.78;10339895;28;20170;-59
2024/01/29 06:11:27;;;;;;;5.72;2.30;;;;;;;1.16;69.73;101705.63;10335538;28;20075;-59
2024/01/29 06:16:29;;;;;;;3.13;1.75;;;;;;;1.18;69.59;101716.13;10337274;28;20058;-61
2024/01/29 06:21:30;;;;;;;6.40;1.83;;;;;;;1.15;70.04;101719.81;10340941;28;20046;-60
2024/01/29 06:26:33;;;;;;;6.78;3.17;;;;;;;1.15;69.84;101724.25;10336100;28;20050;-59
2024/01/29 06:31:41;;;;;;;6.68;2.38;;;;;;;1.18;69.75;101724.97;10333302;28;20046;-58
2024/01/29 06:36:42;;;;;;;7.50;2.33;;;;;;;1.23;70.02;101737.09;10336393;28;20038;-58
2024/01/29 06:41:44;;;;;;;6.78;2.60;;;;;;;1.22;69.87;101735.38;10336489;28;20038;-58
2024/01/29 06:46:45;;;;;;;6.05;2.90;;;;;;;1.21;69.24;101737.19;10349151;28;20042;-60
2024/01/29 06:51:47;;;;;;;9.93;4.13;;;;;;;1.23;69.51;101739.75;10345674;28;20046;-59
2024/01/29 06:56:48;;;;;;;9.70;3.13;;;;;;;1.34;69.17;101745.31;10350835;28;20672;-68
2024/01/29 07:01:50;;;;;;;6.97;3.40;;;;;;;1.40;69.62;101747.63;10351227;28;20073;-64
2024/01/29 07:06:51;;;;;;;7.68;3.85;;;;;;;1.44;68.96;101751.81;10352110;28;20054;-65
2024/01/29 07:11:53;;;;;;;5.80;2.95;;;;;;;1.46;69.42;101765.00;10358647;28;20046;-66
2024/01/29 07:16:55;;;;;;;8.38;3.03;;;;;;;1.49;69.32;101770.13;10337366;28;20061;-66
2024/01/29 07:21:57;;;;;;;9.10;3.10;;;;;;;1.53;69.53;101772.53;10344633;28;20062;-67
2024/01/29 07:26:59;;;;;;;10.93;3.85;;;;;;;1.58;69.40;101785.56;10339410;28;20038;-67
2024/01/29 07:32:00;;;;;;;5.80;2.80;;;;;;;1.65;69.02;101786.06;10341075;28;20056;-67
2024/01/29 07:37:02;;;;;;;7.18;3.10;;;;;;;1.71;69.29;101788.38;10339184;28;20074;-66
2024/01/29 07:42:04;;;;;;;6.07;3.25;;;;;;;1.81;69.39;101799.34;10345040;28;20050;-67
2024/01/29 07:47:06;;;;;;;6.75;3.20;;;;;;;1.90;69.33;101798.84;10354935;28;20434;-68
2024/01/29 07:52:08;;;;;;;6.97;2.80;;;;;;;2.05;69.42;101800.63;10341005;28;20394;-67
2024/01/29 07:57:10;;;;;;;5.88;3.17;;;;;;;2.13;69.82;101798.44;10343457;28;20040;-67
2024/01/29 08:02:12;;;;;;;8.10;3.40;;;;;;;2.39;69.50;101812.03;10347516;28;20038;-67
2024/01/29 08:07:13;;;;;;;6.25;3.58;;;;;;;2.68;69.10;101801.53;10340184;28;20048;-67
2024/01/29 08:12:15;;;;;;;11.07;4.43;;;;;;;2.95;68.76;101799.91;10348597;28;20049;-66
2024/01/29 08:17:17;;;;;;;11.32;4.53;;;;;;;3.26;68.68;101791.91;10345562;28;20471;-67
2024/01/29 08:22:18;;;;;;;8.90;4.10;;;;;;;3.59;68.85;101796.97;10338991;28;20054;-68
2024/01/29 08:27:20;;;;;;;10.60;5.13;;;;;;;3.94;68.52;101799.25;10345794;28;20072;-70
2024/01/29 08:32:23;;;;;;;7.35;3.65;;;;;;;4.26;68.45;101785.69;10347073;28;20046;-67
2024/01/29 08:37:25;;;;;;;9.40;5.55;;;;;;;4.55;68.52;101789.09;10340288;28;20491;-67
2024/01/29 08:42:26;;;;;;;7.40;5.32;;;;;;;4.78;68.60;101784.91;10335480;28;20085;-65
2024/01/29 08:47:28;;;;;;;11.77;5.40;;;;;;;4.94;68.37;101777.59;10344618;28;20377;-65
2024/01/29 08:52:29;;;;;;;9.15;5.03;;;;;;;5.17;68.12;101780.47;10342118;28;20046;-65
2024/01/29 08:57:31;;;;;;;10.20;5.10;;;;;;;5.31;67.50;101782.19;10351900;28;20034;-64
2024/01/29 09:02:33;;;;;;;11.30;5.95;;;;;;;5.48;67.75;101775.69;10341396;28;20052;-64
2024/01/29 09:07:35;;;;;;;8.15;4.90;;;;;;;5.68;67.75;101782.28;10357735;28;20124;-63
2024/01/29 09:12:36;;;;;;;9.60;5.35;;;;;;;5.95;67.24;101784.84;10339671;28;20397;-64
2024/01/29 09:17:38;;;;;;;15.95;6.22;;;;;;;6.20;66.94;101783.94;10347798;28;20042;-66
2024/01/29 09:22:40;;;;;;;11.15;6.55;;;;;;;6.46;67.10;101770.47;10342032;28;20049;-65
2024/01/29 09:27:41;;;;;;;13.05;5.90;;;;;;;6.67;66.56;101779.53;10339344;28;20041;-65
2024/01/29 09:32:42;;;;;;;10.38;5.30;;;;;;;6.87;66.07;101775.38;10343871;28;20186;-63
2024/01/29 09:37:44;;;;;;;8.98;6.15;;;;;;;6.97;66.05;101783.53;10340780;28;20037;-65
2024/01/29 09:42:50;;;;;;;13.00;6.60;;;;;;;6.99;66.00;101776.25;10338694;28;20044;-65
2024/01/29 09:47:52;;;;;;;11.18;7.03;;;;;;;6.95;66.29;101780.97;10341434;28;20046;-64
2024/01/29 09:52:55;;;;;;;15.52;7.20;;;;;;;6.97;66.17;101783.53;10337890;28;20449;-64
2024/01/29 09:57:59;;;;;;;14.70;7.32;;;;;;;6.99;65.42;101792.28;10342256;28;20038;-66
2024/01/29 10:03:04;;;;;;;12.85;7.47;;;;;;;7.11;65.09;101793.19;10336484;28;20057;-65
2024/01/29 10:08:08;;;;;;;12.05;7.47;;;;;;;7.24;64.69;101793.91;10344479;28;20046;-65
2024/01/29 10:13:09;;;;;;;13.20;7.30;;;;;;;7.39;65.15;101796.41;10323712;28;20076;-64
2024/01/29 10:18:12;;;;;;;11.38;7.25;;;;;;;7.41;65.01;101797.97;10349374;28;20470;-66
2024/01/29 10:23:14;;;;;;;15.98;8.55;;;;;;;7.48;64.48;101783.13;10345051;28;20097;-66
2024/01/29 10:28:16;;;;;;;15.15;7.45;;;;;;;7.53;64.66;101780.09;10343933;28;20438;-63
2024/01/29 10:33:17;;;;;;;13.23;7.30;;;;;;;7.66;64.02;101782.66;10352503;28;20134;-63
2024/01/29 10:38:22;;;;;;;14.68;7.90;;;;;;;7.72;64.09;101780.34;10351317;28;20077;-63
2024/01/29 10:43:34;;;;;;;15.48;8.55;;;;;;;7.79;64.04;101770.00;10350169;28;20046;-65
2024/01/29 10:48:36;;;;;;;13.93;8.02;;;;;;;7.87;63.86;101769.38;10353552;28;20046;-63
2024/01/29 10:53:40;;;;;;;14.07;8.10;;;;;;;7.91;63.89;101773.53;10349111;28;20444;-63
2024/01/29 10:58:42;;;;;;;16.10;8.68;;;;;;;8.02;63.85;101768.16;10351006;28;20096;-64
2024/01/29 11:03:45;;;;;;;19.73;8.82;;;;;;;8.01;63.37;101766.44;10350965;28;20046;-62
2024/01/29 11:08:52;;;;;;;16.30;8.32;;;;;;;8.10;63.16;101763.03;10350635;28;20092;-63
2024/01/29 11:13:54;;;;;;;;;;;;;;;8.25;63.26;101762.75;10344571;28;20116;-62
2024/01/29 11:18:56;;;;;;;17.40;8.43;;;;;;;8.14;63.44;101759.13;10343168;28;19922;-63
2024/01/29 11:23:58;;;;;;;17.08;8.32;;;;;;;8.22;62.72;101757.66;10345115;28;20429;-64
2024/01/29 11:29:03;;;;;;;17.50;9.55;;;;;;;8.56;62.22;101745.00;10341950;28;20146;-63
2024/01/29 11:34:08;;;;;;;17.98;9.63;;;;;;;8.57;61.91;101748.53;10349346;28;20053;-63
2024/01/29 11:39:10;;;;;;;24.83;10.07;;;;;;;8.67;61.84;101742.28;10352914;28;20559;-63
2024/01/29 11:44:11;;;;;;;17.38;9.20;;;;;;;8.67;61.89;101738.78;10346185;28;20046;-65
2024/01/29 11:49:22;;;;;;;15.38;9.27;;;;;;;8.74;61.35;101726.53;10367424;28;20050;-62
2024/01/29 11:54:24;;;;;;;15.75;9.88;;;;;;;8.86;61.05;101732.69;10356520;28;20061;-62
2024/01/29 11:59:26;;;;;;;16.92;9.73;;;;;;;8.86;61.32;101736.19;10363823;28;20115;-62
2024/01/29 12:04:28;;;;;;;20.88;10.80;;;;;;;8.82;61.16;101728.56;10357239;28;20055;-63
2024/01/29 12:09:30;;;;;;;18.13;9.50;;;;;;;8.89;60.83;101727.06;10365156;28;20049;-63
2024/01/29 12:14:32;;;;;;;17.38;10.20;;;;;;;8.94;60.88;101722.16;10350808;28;20041;-61
2024/01/29 12:19:34;;;;;;;16.48;10.13;;;;;;;9.17;60.46;101714.81;10345842;28;20109;-64
2024/01/29 12:24:35;;;;;;;15.60;9.20;;;;;;;9.21;60.63;101707.34;10349845;28;20048;-62
2024/01/29 12:29:38;;;;;;;16.10;9.20;;;;;;;9.42;60.45;101697.41;10353994;28;20053;-64
2024/01/29 12:34:44;;;;;;;15.38;10.65;;;;;;;9.55;60.09;101691.81;10364118;28;20050;-62
2024/01/29 12:39:55;;;;;;;18.43;9.70;;;;;;;9.70;59.85;101690.44;10348780;28;20050;-64
2024/01/29 12:45:14;;;;;;;15.32;9.77;;;;;;;9.78;59.86;101684.38;10345520;28;20050;-63
2024/01/29 12:50:17;;;;;;;14.68;8.68;;;;;;;9.87;59.99;101688.94;10357147;28;20066;-61
2024/01/29 12:55:18;;;;;;;14.90;8.95;;;;;;;9.94;60.00;101681.16;10359383;28;20520;-62
2024/01/29 13:00:20;;;;;;;16.95;9.32;;;;;;;10.08;59.50;101674.53;10350674;28;20056;-64
2024/01/29 13:05:22;;;;;;;16.00;9.68;;;;;;;10.08;59.32;101667.31;10346150;28;20095;-64
2024/01/29 13:10:27;;;;;;;17.02;9.43;;;;;;;10.37;59.05;101668.34;10351556;28;20481;-63
2024/01/29 13:15:29;;;;;;;16.20;9.65;;;;;;;10.70;58.72;101661.66;10348333;28;20055;-61
2024/01/29 13:20:31;;;;;;;17.33;9.45;;;;;;;10.90;58.30;101649.88;10342099;28;20405;-63
2024/01/29 13:25:33;;;;;;;15.57;9.52;;;;;;;10.69;58.35;101652.75;10344778;28;20062;-63
2024/01/29 13:30:37;;;;;;;15.15;9.38;;;;;;;10.87;58.33;101652.00;10344686;28;20046;-64
2024/01/29 13:35:40;;;;;;;16.25;10.02;;;;;;;11.03;58.09;101648.69;10351405;28;20408;-64
2024/01/29 13:40:41;;;;;;;17.23;9.27;;;;;;;10.91;58.24;101646.19;10347874;28;20046;-63
2024/01/29 13:45:43;;;;;;;16.20;9.25;;;;;;;10.97;57.82;101641.22;10344434;28;20057;-64
2024/01/29 13:50:45;;;;;;;15.02;8.88;;;;;;;11.00;57.63;101641.78;10356998;28;20044;-62
2024/01/29 13:55:46;;;;;;;15.52;9.55;;;;;;;10.96;57.77;101647.56;10344047;28;20050;-63
2024/01/29 14:00:48;;;;;;;18.52;10.20;;;;;;;10.91;58.05;101640.78;10346424;28;20043;-63
2024/01/29 14:05:49;;;;;;;14.43;10.35;;;;;;;10.93;57.63;101639.81;10362843;28;20057;-63
2024/01/29 14:10:52;;;;;;;15.70;9.43;;;;;;;10.90;57.83;101640.97;10362868;28;20050;-62
2024/01/29 14:15:54;;;;;;;13.93;9.88;;;;;;;10.95;57.58;101640.50;10354202;28;20046;-64
2024/01/29 14:20:55;;;;;;;14.32;9.05;;;;;;;11.03;57.60;101648.69;10342970;28;20112;-63
2024/01/29 14:25:58;;;;;;;18.02;10.40;;;;;;;10.98;57.33;101653.66;10344375;28;20108;-62
2024/01/29 14:30:59;;;;;;;16.10;10.65;;;;;;;10.97;57.68;101641.22;10354463;28;20037;-66
2024/01/29 14:36:01;;;;;;;19.33;9.48;;;;;;;10.99;57.55;101644.59;10351171;28;20042;-63
2024/01/29 14:41:02;;;;;;;14.70;10.05;;;;;;;10.96;57.37;101647.56;10352192;28;20043;-63
2024/01/29 14:46:06;;;;;;;18.30;9.73;;;;;;;11.03;57.41;101646.00;10347979;28;20070;-63
2024/01/29 14:51:07;;;;;;;14.77;9.75;;;;;;;11.15;57.17;101641.28;10348670;28;20176;-62
2024/01/29 14:56:09;;;;;;;20.42;10.93;;;;;;;11.18;56.77;101641.00;10346905;28;20041;-61
2024/01/29 15:01:11;;;;;;;18.42;9.40;;;;;;;11.02;57.17;101647.00;10347204;28;20042;-61
2024/01/29 15:06:20;;;;;;;16.95;10.02;;;;;;;10.94;57.42;101649.56;10345379;28;20084;-65
2024/01/29 15:11:22;;;;;;;15.20;10.30;;;;;;;10.75;57.72;101655.88;10342457;28;20053;-65
2024/01/29 15:16:24;;;;;;;17.27;9.85;;;;;;;10.80;57.22;101661.63;10344970;28;20046;-63
2024/01/29 15:21:25;;;;;;;20.00;9.80;;;;;;;10.75;57.37;101659.41;10346742;28;20485;-61
2024/01/29 15:26:28;;;;;;;14.85;9.30;;;;;;;10.63;57.98;101663.25;10340875;28;20049;-63
2024/01/29 15:31:32;;;;;;;14.02;8.60;;;;;;;10.46;58.18;101668.34;10342852;28;20396;-61
2024/01/29 15:36:35;;;;;;;13.55;8.25;;;;;;;10.46;58.34;101671.03;10345235;28;20073;-62
2024/01/29 15:41:37;;;;;;;12.85;8.68;;;;;;;10.33;58.43;101678.56;10347345;28;20050;-70
2024/01/29 15:46:45;;;;;;;15.75;8.80;;;;;;;10.27;58.27;101679.09;10343121;28;20058;-69
2024/01/29 15:51:46;;;;;;;16.33;9.00;;;;;;;10.28;58.41;101680.78;10343977;28;20046;-70
2024/01/29 15:56:48;;;;;;;21.00;10.05;;;;;;;10.19;58.75;101685.16;10343366;28;20041;-70
2024/01/29 16:01:57;;;;;;;12.80;8.80;;;;;;;10.17;58.47;101673.72;10344611;28;20053;-70
2024/01/29 16:06:59;;;;;;;14.13;9.00;;;;;;;10.09;58.37;101674.41;10341370;28;20053;-71
2024/01/29 16:12:00;;;;;;;15.02;9.68;;;;;;;9.96;58.67;101671.13;10344407;28;20046;-70
2024/01/29 16:17:02;;;;;;;14.95;9.57;;;;;;;9.84;58.77;101674.94;10337684;28;20058;-69
2024/01/29 16:22:04;;;;;;;19.42;10.20;;;;;;;9.67;59.27;101679.97;10346596;28;20077;-70
2024/01/29 16:27:05;;;;;;;17.83;10.75;;;;;;;9.57;59.24;101686.31;10344802;28;20050;-70
2024/01/29 16:32:07;;;;;;;24.92;12.27;;;;;;;9.43;59.46;101698.25;10337663;28;20147;-61
2024/01/29 16:37:08;;;;;;;18.27;11.32;;;;;;;9.29;59.83;101699.47;10341460;28;22762;-62
2024/01/29 16:42:10;;;;;;;17.80;11.07;;;;;;;9.06;60.13;101691.59;10341545;28;20145;-61
2024/01/29 16:47:11;;;;;;;17.25;10.00;;;;;;;8.96;60.42;101696.03;10340495;28;20050;-63
2024/01/29 16:52:13;;;;;;;22.88;11.73;;;;;;;8.94;60.33;101695.31;10340904;28;20053;-61
2024/01/29 16:57:14;;;;;;;19.67;10.82;;;;;;;8.81;60.63;101689.34;10346477;28;20511;-60
2024/01/29 17:02:18;;;;;;;17.42;9.77;;;;;;;8.72;60.68;101682.91;10345606;28;20508;-60
2024/01/29 17:07:19;;;;;;;20.08;11.32;;;;;;;8.57;60.96;101692.25;10347050;28;20071;-62
2024/01/29 17:12:21;;;;;;;17.83;11.13;;;;;;;8.40;61.04;101702.53;10345737;28;20050;-61
2024/01/29 17:17:22;;;;;;;19.85;11.60;;;;;;;8.27;61.62;101704.53;10339963;28;20539;-60
2024/01/29 17:22:24;;;;;;;17.90;10.23;;;;;;;8.14;61.81;101707.38;10341419;28;20046;-63
2024/01/29 17:27:27;;;;;;;21.85;11.57;;;;;;;8.03;62.12;101705.56;10343035;28;20053;-60
2024/01/29 17:32:30;;;;;;;21.50;12.60;;;;;;;7.91;61.81;101711.94;10343016;28;20058;-61
2024/01/29 17:37:32;;;;;;;22.75;12.30;;;;;;;7.76;62.35;101714.06;10339929;28;20076;-62
2024/01/29 17:42:33;;;;;;;23.90;12.98;;;;;;;7.64;62.75;101720.38;10345182;28;20140;-61
2024/01/29 17:47:35;;;;;;;29.60;14.30;;;;;;;7.58;62.64;101721.72;10341857;28;20049;-61
2024/01/29 17:52:38;;;;;;;21.90;12.80;;;;;;;7.53;62.74;101721.25;10346772;28;20065;-61
2024/01/29 17:57:39;;;;;;;25.65;12.82;;;;;;;7.46;62.97;101726.22;10339212;28;20983;-62
2024/01/29 18:02:41;;;;;;;23.20;12.43;;;;;;;7.41;63.00;101727.56;10330058;28;20523;-62
2024/01/29 18:07:43;;;;;;;28.00;15.32;;;;;;;7.32;62.99;101726.47;10356134;28;20043;-61
2024/01/29 18:12:45;;;;;;;35.97;22.02;;;;;;;7.25;63.47;101723.44;10334691;28;20042;-62
2024/01/29 18:17:46;;;;;;;31.77;18.60;;;;;;;7.24;63.93;101726.22;10339457;28;20083;-62
2024/01/29 18:22:48;;;;;;;32.22;20.80;;;;;;;7.15;63.21;101725.97;10336614;28;20052;-61
2024/01/29 18:27:49;;;;;;;38.10;19.42;;;;;;;7.06;63.85;101739.19;10339161;28;20042;-63
2024/01/29 18:32:53;;;;;;;32.35;18.10;;;;;;;6.98;63.78;101730.91;10341470;28;20144;-62
2024/01/29 18:37:56;;;;;;;27.33;14.65;;;;;;;6.87;63.71;101745.97;10343044;28;20046;-62
2024/01/29 18:42:58;;;;;;;26.67;13.00;;;;;;;6.79;63.59;101739.50;10362943;28;20038;-62
2024/01/29 18:48:01;;;;;;;30.23;14.35;;;;;;;6.71;64.09;101740.06;10342113;28;20457;-62
2024/01/29 18:53:03;;;;;;;31.30;15.60;;;;;;;6.61;64.26;101755.09;10347739;28;20050;-62
2024/01/29 18:58:04;;;;;;;27.48;16.05;;;;;;;6.53;64.76;101753.84;10340806;28;20053;-62
2024/01/29 19:03:06;;;;;;;37.13;17.90;;;;;;;6.44;64.21;101759.91;10349031;28;20062;-62
2024/01/29 19:08:07;;;;;;;35.80;16.95;;;;;;;6.35;65.04;101757.91;10346603;28;20054;-62
2024/01/29 19:13:09;;;;;;;36.78;17.05;;;;;;;6.26;64.53;101761.22;10350126;28;20819;-62
2024/01/29 19:18:12;;;;;;;32.08;17.23;;;;;;;6.20;65.34;101756.34;10340982;28;20072;-62
2024/01/29 19:23:16;;;;;;;33.60;15.80;;;;;;;6.13;64.89;101753.28;10343240;28;20050;-61
2024/01/29 19:28:17;;;;;;;33.13;15.18;;;;;;;6.07;65.58;101757.25;10344879;28;20049;-61
2024/01/29 19:33:19;;;;;;;25.77;13.25;;;;;;;6.00;65.19;101752.47;10341700;28;20481;-62
2024/01/29 19:38:21;;;;;;;30.02;13.57;;;;;;;5.91;65.34;101761.97;10338182;28;20063;-61
2024/01/29 19:43:23;;;;;;;34.33;17.77;;;;;;;5.87;65.77;101758.66;10342844;28;20089;-61
2024/01/29 19:48:25;;;;;;;38.47;16.90;;;;;;;5.83;65.83;101765.19;10341799;28;20045;-60
2024/01/29 19:53:26;;;;;;;53.10;20.27;;;;;;;5.75;65.42;101754.22;10339904;28;20061;-61
2024/01/29 19:58:28;;;;;;;50.75;19.75;;;;;;;5.69;66.10;101757.34;10342405;28;20045;-60
2024/01/29 20:03:29;;;;;;;38.00;18.58;;;;;;;5.63;66.23;101757.75;10334615;28;20106;-61
2024/01/29 20:08:31;;;;;;;44.60;18.98;;;;;;;5.56;66.38;101760.00;10343326;28;20046;-60
2024/01/29 20:13:34;;;;;;;29.08;14.57;;;;;;;5.49;65.85;101761.38;10343525;28;20045;-60
2024/01/29 20:18:38;;;;;;;30.88;15.18;;;;;;;5.44;65.86;101767.06;10346950;28;20070;-60
2024/01/29 20:23:44;;;;;;;28.23;15.82;;;;;;;5.34;66.74;101766.00;10340027;28;20065;-60
2024/01/29 20:28:45;;;;;;;31.17;16.83;;;;;;;5.25;66.33;101770.16;10339288;28;20927;-60
2024/01/29 20:33:46;;;;;;;28.15;14.98;;;;;;;5.20;66.91;101761.63;10340622;28;20049;-59
2024/01/29 20:38:49;;;;;;;28.95;14.40;;;;;;;5.15;66.29;101761.06;10340961;28;20041;-60
2024/01/29 20:43:51;;;;;;;29.67;15.10;;;;;;;5.08;66.18;101763.31;10338885;28;20042;-61
2024/01/29 20:48:54;;;;;;;33.97;14.23;;;;;;;5.06;66.70;101759.06;10340455;28;20069;-60
2024/01/29 20:53:55;;;;;;;32.47;14.82;;;;;;;5.02;66.87;101755.75;10339233;28;20084;-60
2024/01/29 20:58:57;;;;;;;30.40;14.05;;;;;;;4.94;66.65;101761.59;10340947;28;20502;-60
2024/01/29 21:03:59;;;;;;;29.13;14.75;;;;;;;4.91;66.54;101756.47;10335625;28;20096;-60
2024/01/29 21:09:02;;;;;;;27.00;14.35;;;;;;;4.89;66.92;101752.22;10341256;28;20046;-61
2024/01/29 21:14:04;;;;;;;29.75;14.15;;;;;;;4.67;67.40;101755.47;10335283;28;20126;-60
2024/01/29 21:19:05;;;;;;;27.98;13.77;;;;;;;4.74;66.93;101754.97;10338817;28;20140;-60
2024/01/29 21:24:07;;;;;;;29.90;13.82;;;;;;;4.64;67.53;101759.19;10337282;28;20522;-60
2024/01/29 21:29:08;;;;;;;31.23;14.15;;;;;;;4.63;66.99;101761.97;10339921;28;20068;-60
2024/01/29 21:34:10;;;;;;;29.67;13.77;;;;;;;4.57;67.78;101755.22;10339661;28;20708;-61
2024/01/29 21:39:11;;;;;;;26.08;14.15;;;;;;;4.47;67.68;101757.66;10341183;28;20144;-60
2024/01/29 21:44:13;;;;;;;28.92;14.45;;;;;;;4.50;67.52;101754.78;10337901;28;20048;-60
2024/01/29 21:49:15;;;;;;;23.42;13.63;;;;;;;4.45;67.54;101756.06;10339039;28;20050;-60
2024/01/29 21:54:16;;;;;;;34.00;16.20;;;;;;;4.46;67.49;101757.75;10339483;28;20068;-60
2024/01/29 21:59:18;;;;;;;27.00;15.93;;;;;;;4.44;67.49;101751.66;10345612;28;20034;-60
2024/01/29 22:04:19;;;;;;;28.95;15.45;;;;;;;4.36;67.91;101752.16;10337834;28;20049;-60
2024/01/29 22:09:22;;;;;;;29.50;15.20;;;;;;;4.30;68.03;101757.91;10339608;28;20049;-59
2024/01/29 22:14:23;;;;;;;25.48;13.77;;;;;;;4.23;67.41;101745.97;10344313;28;20049;-60
2024/01/29 22:19:24;;;;;;;25.75;14.27;;;;;;;4.17;67.76;101747.22;10356234;28;20516;-61
2024/01/29 22:24:26;;;;;;;27.75;13.95;;;;;;;4.15;67.95;101754.44;10344860;28;20053;-60
2024/01/29 22:29:28;;;;;;;23.92;13.15;;;;;;;4.08;68.07;101750.47;10345342;28;20042;-61
2024/01/29 22:34:29;;;;;;;23.15;11.73;;;;;;;4.04;67.90;101756.94;10344565;28;20078;-61
2024/01/29 22:39:31;;;;;;;28.73;13.40;;;;;;;3.96;68.16;101758.28;10345458;28;20103;-61
2024/01/29 22:44:32;;;;;;;26.70;13.73;;;;;;;3.89;68.22;101756.97;10342442;28;20054;-61
2024/01/29 22:49:33;;;;;;;26.55;13.57;;;;;;;3.74;68.53;101764.09;10346314;28;20049;-61
2024/01/29 22:54:35;;;;;;;27.27;12.63;;;;;;;3.80;68.28;101772.66;10347651;28;20073;-61
2024/01/29 22:59:36;;;;;;;37.20;17.55;;;;;;;3.73;68.70;101762.41;10347005;28;20041;-61
2024/01/29 23:04:38;;;;;;;33.50;16.25;;;;;;;3.73;68.42;101759.75;10340299;28;20049;-63
2024/01/29 23:09:40;;;;;;;25.60;13.68;;;;;;;3.71;69.22;101772.28;10343818;28;20534;-63